createdAt,value
2023-04-25T00:02:47.404Z,9.02
2023-04-25T00:05:52.628Z,9.15
2023-04-25T00:08:56.589Z,9.03
2023-04-25T00:11:59.191Z,9.27
2023-04-25T00:15:01.916Z,9.07
2023-04-25T00:18:05.010Z,9.09
2023-04-25T00:21:09.015Z,8.92
2023-04-25T00:24:11.589Z,9.10
2023-04-25T00:27:14.166Z,8.95
2023-04-25T00:30:16.817Z,9.02
2023-04-25T00:33:19.437Z,8.71
2023-04-25T00:36:23.404Z,8.50
2023-04-25T00:39:25.993Z,8.37
2023-04-25T00:42:29.097Z,8.73
2023-04-25T00:45:31.949Z,8.77
2023-04-25T00:48:34.535Z,8.39
2023-04-25T00:51:38.913Z,8.61
2023-04-25T00:54:41.896Z,8.51
2023-04-25T00:57:44.961Z,8.60
2023-04-25T01:00:48.506Z,8.65
2023-04-25T01:03:52.123Z,8.71
2023-04-25T01:06:56.488Z,8.19
2023-04-25T01:09:59.794Z,8.42
2023-04-25T01:13:02.433Z,8.64
2023-04-25T01:16:05.529Z,8.44
2023-04-25T01:19:12.092Z,8.52
2023-04-25T01:22:16.569Z,8.38
2023-04-25T01:25:19.376Z,8.41
2023-04-25T01:28:22.964Z,8.47
2023-04-25T01:31:25.931Z,8.53
2023-04-25T01:34:28.593Z,8.61
2023-04-25T01:37:32.597Z,8.67
2023-04-25T01:40:35.996Z,8.43
2023-04-25T01:43:38.728Z,8.50
2023-04-25T01:46:41.555Z,8.60
2023-04-25T01:49:44.195Z,8.42
2023-04-25T01:52:48.262Z,8.59
2023-04-25T01:55:50.821Z,8.41
2023-04-25T01:58:53.774Z,8.23
2023-04-25T02:01:56.464Z,8.34
2023-04-25T02:04:59.103Z,8.35
2023-04-25T02:08:03.083Z,8.10
2023-04-25T02:11:05.793Z,8.04
2023-04-25T02:14:08.383Z,8.08
2023-04-25T02:17:11.093Z,8.09
2023-04-25T02:20:14.027Z,8.38
2023-04-25T02:23:19.971Z,8.11
2023-04-25T02:26:24.617Z,7.99
2023-04-25T02:29:27.194Z,7.81
2023-04-25T02:32:29.844Z,7.73
2023-04-25T02:35:32.519Z,7.73
2023-04-25T02:38:36.482Z,8.16
2023-04-25T02:41:39.097Z,7.90
2023-04-25T02:44:41.688Z,8.01
2023-04-25T02:47:44.367Z,7.90
2023-04-25T02:50:47.005Z,7.91
2023-04-25T02:53:51.149Z,7.62
2023-04-25T02:56:54.065Z,7.63
2023-04-25T02:59:56.650Z,7.64
2023-04-25T03:02:59.327Z,7.67
2023-04-25T03:06:02.082Z,7.75
2023-04-25T03:09:06.053Z,7.79
2023-04-25T03:12:08.663Z,7.92
2023-04-25T03:15:11.977Z,7.69
2023-04-25T03:18:14.543Z,7.67
2023-04-25T03:21:17.128Z,7.69
2023-04-25T03:24:21.697Z,7.26
2023-04-25T03:27:24.359Z,7.40
2023-04-25T03:30:27.098Z,7.53
2023-04-25T03:33:29.670Z,7.52
2023-04-25T03:36:33.610Z,7.35
2023-04-25T03:39:38.553Z,7.28
2023-04-25T03:42:41.791Z,7.23
2023-04-25T03:45:45.540Z,7.11
2023-04-25T03:48:48.142Z,7.24
2023-04-25T03:51:50.806Z,7.19
2023-04-25T03:54:54.751Z,7.26
2023-04-25T03:57:58.867Z,6.94
2023-04-25T04:01:03.429Z,7.02
2023-04-25T04:04:06.344Z,7.21
2023-04-25T04:07:09.209Z,7.19
2023-04-25T04:10:13.865Z,7.18
2023-04-25T04:13:16.439Z,7.06
2023-04-25T04:16:19.699Z,7.28
2023-04-25T04:19:22.375Z,7.50
2023-04-25T04:22:25.652Z,7.27
2023-04-25T04:25:29.641Z,7.24
2023-04-25T04:28:32.277Z,7.15
2023-04-25T04:31:34.933Z,7.11
2023-04-25T04:34:38.372Z,7.05
2023-04-25T04:37:40.978Z,7.27
2023-04-25T04:40:45.058Z,7.08
2023-04-25T04:43:47.826Z,7.25
2023-04-25T04:46:51.475Z,7.45
2023-04-25T04:49:54.090Z,7.32
2023-04-25T04:52:56.655Z,7.09
2023-04-25T04:56:00.899Z,7.34
2023-04-25T04:59:03.826Z,7.07
2023-04-25T05:02:06.428Z,7.14
2023-04-25T05:05:09.837Z,7.25
2023-04-25T05:08:12.425Z,7.10
2023-04-25T05:11:16.398Z,7.24
2023-04-25T05:14:19.329Z,7.12
2023-04-25T05:17:22.063Z,7.35
2023-04-25T05:20:24.923Z,7.13
2023-04-25T05:23:28.762Z,7.28
2023-04-25T05:26:32.942Z,7.36
2023-04-25T05:29:36.153Z,7.42
2023-04-25T05:32:38.757Z,7.28
2023-04-25T05:35:41.483Z,7.06
2023-04-25T05:38:44.076Z,7.09
2023-04-25T05:41:47.996Z,7.12
2023-04-25T05:44:50.614Z,7.15
2023-04-25T05:47:54.436Z,7.22
2023-04-25T05:50:57.022Z,6.96
2023-04-25T05:53:59.610Z,7.10
2023-04-25T05:57:03.978Z,6.76
2023-04-25T06:00:10.214Z,7.04
2023-04-25T06:03:15.861Z,6.85
2023-04-25T06:06:19.706Z,6.78
2023-04-25T06:09:22.291Z,6.78
2023-04-25T06:12:26.246Z,7.05
2023-04-25T06:15:29.155Z,7.38
2023-04-25T06:18:31.856Z,7.02
2023-04-25T06:21:34.463Z,7.35
2023-04-25T06:24:37.376Z,7.42
2023-04-25T06:27:41.312Z,7.50
2023-04-25T06:30:43.902Z,7.59
2023-04-25T06:33:46.464Z,7.43
2023-04-25T06:36:49.059Z,7.67
2023-04-25T06:39:51.658Z,7.83
2023-04-25T06:42:55.597Z,8.08
2023-04-25T06:45:58.331Z,8.12
2023-04-25T06:49:01.015Z,7.62
2023-04-25T06:52:03.840Z,7.53
2023-04-25T06:55:07.255Z,7.69
2023-04-25T06:58:11.247Z,7.81
2023-04-25T07:01:13.858Z,7.56
2023-04-25T07:04:16.607Z,7.50
2023-04-25T07:07:19.786Z,7.52
2023-04-25T07:10:22.860Z,7.67
2023-04-25T07:13:26.842Z,7.84
2023-04-25T07:16:29.641Z,8.12
2023-04-25T07:19:32.248Z,8.35
2023-04-25T07:22:34.971Z,8.04
2023-04-25T07:25:37.553Z,7.77
2023-04-25T07:28:41.510Z,7.86
2023-04-25T07:31:44.220Z,7.74
2023-04-25T07:34:46.867Z,8.16
2023-04-25T07:37:49.448Z,7.96
2023-04-25T07:40:52.228Z,8.11
2023-04-25T07:43:56.210Z,8.31
2023-04-25T07:46:58.787Z,7.97
2023-04-25T07:50:01.522Z,7.90
2023-04-25T07:53:04.171Z,7.88
2023-04-25T07:56:07.476Z,7.80
2023-04-25T07:59:11.705Z,7.69
2023-04-25T08:02:14.418Z,7.72
2023-04-25T08:05:19.573Z,7.86
2023-04-25T08:08:23.895Z,7.79
2023-04-25T08:11:26.826Z,8.07
2023-04-25T08:14:36.531Z,8.64
2023-04-25T08:17:39.415Z,8.76
2023-04-25T08:20:42.565Z,9.20
2023-04-25T08:23:45.138Z,9.17
2023-04-25T08:26:47.797Z,9.26
2023-04-25T08:29:51.993Z,8.98
2023-04-25T08:32:54.795Z,8.81
2023-04-25T08:35:57.904Z,8.71
2023-04-25T08:39:00.880Z,8.64
2023-04-25T08:42:08.114Z,8.61
2023-04-25T08:45:12.818Z,8.31
2023-04-25T08:48:16.811Z,8.36
2023-04-25T08:51:25.461Z,8.61
2023-04-25T08:54:34.273Z,8.68
2023-04-25T08:57:39.145Z,8.81
2023-04-25T09:00:43.221Z,8.77
2023-04-25T09:03:46.114Z,8.84
2023-04-25T09:06:48.876Z,9.11
2023-04-25T09:09:51.479Z,9.30
2023-04-25T09:13:09.667Z,9.25
2023-04-25T09:16:15.566Z,9.72
2023-04-25T09:19:38.066Z,9.52
2023-04-25T09:22:43.761Z,9.54
2023-04-25T09:25:46.761Z,8.94
2023-04-25T09:28:49.865Z,9.06
2023-04-25T09:31:53.921Z,8.95
2023-04-25T09:34:57.955Z,8.47
2023-04-25T09:38:01.152Z,8.54
2023-04-25T09:41:03.829Z,8.46
2023-04-25T09:44:06.512Z,8.45
2023-04-25T09:47:12.459Z,8.71
2023-04-25T09:50:19.980Z,9.21
2023-04-25T09:53:22.554Z,9.30
2023-04-25T09:56:26.699Z,9.51
2023-04-25T09:59:32.507Z,9.99
2023-04-25T10:02:37.787Z,9.47
2023-04-25T10:05:41.385Z,8.84
2023-04-25T10:08:45.197Z,8.82
2023-04-25T10:11:48.958Z,9.05
2023-04-25T10:14:52.284Z,9.13
2023-04-25T10:17:56.594Z,9.31
2023-04-25T10:21:02.062Z,9.82
2023-04-25T10:24:05.375Z,10.35
2023-04-25T10:27:08.493Z,10.29
2023-04-25T10:30:16.247Z,10.51
2023-04-25T10:33:20.723Z,10.42
2023-04-25T10:36:24.978Z,11.66
2023-04-25T10:39:29.702Z,11.66
2023-04-25T10:42:32.474Z,11.86
2023-04-25T10:45:53.516Z,11.99
2023-04-25T10:48:59.062Z,12.07
2023-04-25T10:52:29.070Z,12.03
2023-04-25T10:55:52.412Z,13.07
2023-04-25T10:59:06.448Z,13.02
2023-04-25T11:02:14.428Z,12.42
2023-04-25T11:05:25.678Z,11.64
2023-04-25T11:08:43.698Z,11.78
2023-04-25T11:11:55.833Z,11.79
2023-04-25T11:15:02.215Z,11.88
2023-04-25T11:18:05.083Z,11.83
2023-04-25T11:21:09.096Z,10.72
2023-04-25T11:24:12.452Z,10.65
2023-04-25T11:27:15.120Z,10.70
2023-04-25T11:30:18.344Z,10.28
2023-04-25T11:33:25.442Z,10.59
2023-04-25T11:36:29.405Z,11.55
2023-04-25T11:39:32.249Z,12.45
2023-04-25T11:42:35.213Z,13.57
2023-04-25T11:45:38.846Z,13.99
2023-04-25T11:48:42.149Z,13.33
2023-04-25T11:51:47.824Z,12.20
2023-04-25T11:54:50.483Z,11.66
2023-04-25T11:57:53.111Z,10.59
2023-04-25T12:00:59.507Z,9.71
2023-04-25T12:04:13.633Z,9.26
2023-04-25T12:07:19.741Z,9.01
2023-04-25T12:10:22.844Z,9.40
2023-04-25T12:13:26.876Z,10.00
2023-04-25T12:16:29.532Z,9.72
2023-04-25T12:19:35.156Z,10.93
2023-04-25T12:22:39.156Z,10.80
2023-04-25T12:25:43.350Z,11.26
2023-04-25T12:28:48.110Z,11.86
2023-04-25T12:31:52.208Z,12.31
2023-04-25T12:34:54.923Z,12.68
2023-04-25T12:37:58.873Z,13.05
2023-04-25T12:41:01.958Z,12.96
2023-04-25T12:44:04.610Z,11.81
2023-04-25T12:47:07.705Z,11.43
2023-04-25T12:50:11.429Z,11.56
2023-04-25T12:53:15.390Z,12.65
2023-04-25T12:56:18.051Z,12.79
2023-04-25T12:59:21.421Z,12.26
2023-04-25T13:02:24.231Z,12.30
2023-04-25T13:05:27.257Z,12.15
2023-04-25T13:08:31.979Z,12.04
2023-04-25T13:11:34.584Z,11.89
2023-04-25T13:14:37.182Z,11.12
2023-04-25T13:17:39.848Z,10.94
2023-04-25T13:20:42.536Z,10.61
2023-04-25T13:23:47.573Z,10.89
2023-04-25T13:26:50.263Z,11.09
2023-04-25T13:29:52.842Z,11.68
2023-04-25T13:32:57.256Z,11.66
2023-04-25T13:35:59.918Z,11.17
2023-04-25T13:39:05.404Z,10.78
2023-04-25T13:42:07.985Z,10.26
2023-04-25T13:45:11.154Z,9.73
2023-04-25T13:48:13.812Z,9.47
2023-04-25T13:51:20.759Z,9.49
2023-04-25T13:54:24.689Z,9.45
2023-04-25T13:57:27.380Z,10.02
2023-04-25T14:00:30.074Z,11.24
2023-04-25T14:03:33.132Z,11.00
2023-04-25T14:06:36.345Z,11.00
2023-04-25T14:09:40.319Z,10.26
2023-04-25T14:12:42.929Z,9.48
2023-04-25T14:15:45.509Z,8.92
2023-04-25T14:18:48.177Z,8.49
2023-04-25T14:21:50.911Z,8.44
2023-04-25T14:24:54.869Z,8.05
2023-04-25T14:27:57.507Z,8.13
2023-04-25T14:31:00.309Z,8.18
2023-04-25T14:34:04.116Z,8.49
2023-04-25T14:37:06.816Z,8.92
2023-04-25T14:40:12.985Z,9.32
2023-04-25T14:43:15.758Z,9.68
2023-04-25T14:46:18.522Z,9.91
2023-04-25T14:49:21.459Z,9.85
2023-04-25T14:52:24.215Z,10.06
2023-04-25T14:55:28.221Z,10.30
2023-04-25T14:58:31.252Z,10.33
2023-04-25T15:01:33.932Z,10.51
2023-04-25T15:04:36.769Z,10.65
2023-04-25T15:07:40.337Z,10.54
2023-04-25T15:10:44.553Z,10.64
2023-04-25T15:13:47.550Z,10.37
2023-04-25T15:16:50.199Z,10.44
2023-04-25T15:19:52.825Z,10.37
2023-04-25T15:22:55.600Z,10.60
2023-04-25T15:25:59.548Z,10.10
2023-04-25T15:29:02.125Z,10.04
2023-04-25T15:32:04.978Z,9.82
2023-04-25T15:35:08.800Z,9.77
2023-04-25T15:38:12.270Z,9.97
2023-04-25T15:41:16.249Z,10.10
2023-04-25T15:44:18.921Z,10.18
2023-04-25T15:47:21.591Z,10.52
2023-04-25T15:50:25.093Z,10.53
2023-04-25T15:53:27.724Z,10.65
2023-04-25T15:56:31.957Z,10.70
2023-04-25T15:59:34.562Z,10.24
2023-04-25T16:02:37.503Z,10.45
2023-04-25T16:05:41.022Z,10.73
2023-04-25T16:08:44.094Z,10.88
2023-04-25T16:11:49.385Z,10.41
2023-04-25T16:14:53.125Z,10.03
2023-04-25T16:17:56.678Z,10.05
2023-04-25T16:21:00.603Z,10.16
2023-04-25T16:24:03.248Z,10.19
2023-04-25T16:27:07.251Z,10.21
2023-04-25T16:30:11.782Z,10.19
2023-04-25T16:33:14.430Z,10.01
2023-04-25T16:36:17.223Z,10.21
2023-04-25T16:39:21.775Z,9.97
2023-04-25T16:42:25.831Z,9.52
2023-04-25T16:45:28.447Z,9.26
2023-04-25T16:48:31.252Z,9.23
2023-04-25T16:51:33.948Z,9.11
2023-04-25T16:54:37.227Z,9.00
2023-04-25T16:57:41.314Z,9.15
2023-04-25T17:00:44.081Z,8.99
2023-04-25T17:03:47.522Z,9.06
2023-04-25T17:06:50.262Z,8.95
2023-04-25T17:09:52.841Z,9.10
2023-04-25T17:12:56.956Z,8.96
2023-04-25T17:15:59.664Z,8.99
2023-04-25T17:19:02.243Z,8.72
2023-04-25T17:22:04.934Z,8.92
2023-04-25T17:25:09.566Z,8.78
2023-04-25T17:28:13.915Z,8.72
2023-04-25T17:31:16.800Z,8.48
2023-04-25T17:34:19.436Z,8.50
2023-04-25T17:37:22.472Z,8.56
2023-04-25T17:40:25.800Z,8.29
2023-04-25T17:43:29.823Z,8.25
2023-04-25T17:46:32.461Z,7.97
2023-04-25T17:49:35.108Z,7.96
2023-04-25T17:52:38.541Z,7.82
2023-04-25T17:55:43.511Z,7.95
2023-04-25T17:58:47.782Z,7.75
2023-04-25T18:01:50.523Z,7.68
2023-04-25T18:04:53.413Z,7.41
2023-04-25T18:07:56.301Z,7.30
2023-04-25T18:10:58.941Z,7.31
2023-04-25T18:14:02.981Z,7.40
2023-04-25T18:17:07.103Z,7.56
2023-04-25T18:20:13.680Z,7.50
2023-04-25T18:23:16.363Z,7.54
2023-04-25T18:26:20.133Z,7.70
2023-04-25T18:29:33.044Z,7.85
2023-04-25T18:32:36.801Z,7.60
2023-04-25T18:35:45.141Z,7.55
2023-04-25T18:38:56.234Z,7.70
2023-04-25T18:42:04.643Z,7.59
2023-04-25T18:45:11.397Z,7.67
2023-04-25T18:48:14.298Z,7.78
2023-04-25T18:51:17.167Z,7.54
2023-04-25T18:54:19.751Z,7.61
2023-04-25T18:57:22.366Z,7.70
2023-04-25T19:00:26.390Z,7.41
2023-04-25T19:03:29.582Z,7.30
2023-04-25T19:06:32.662Z,7.31
2023-04-25T19:09:35.275Z,7.09
2023-04-25T19:12:37.876Z,7.25
2023-04-25T19:15:41.896Z,7.14
2023-04-25T19:18:45.056Z,6.89
2023-04-25T19:21:47.686Z,6.60
2023-04-25T19:24:55.750Z,7.04
2023-04-25T19:28:07.524Z,6.95
2023-04-25T19:31:11.801Z,7.04
2023-04-25T19:34:14.836Z,6.97
2023-04-25T19:37:17.956Z,6.95
2023-04-25T19:40:22.659Z,6.81
2023-04-25T19:43:25.239Z,6.87
2023-04-25T19:46:29.278Z,6.88
2023-04-25T19:49:32.081Z,6.72
2023-04-25T19:52:35.802Z,6.86
2023-04-25T19:55:38.530Z,6.99
2023-04-25T19:58:41.207Z,6.91
2023-04-25T20:01:45.286Z,6.51
2023-04-25T20:04:47.932Z,6.54
2023-04-25T20:07:50.536Z,6.67
2023-04-25T20:10:53.136Z,6.71
2023-04-25T20:13:56.217Z,6.80
2023-04-25T20:17:00.215Z,6.94
2023-04-25T20:20:06.180Z,6.62
2023-04-25T20:23:08.794Z,6.68
2023-04-25T20:26:12.609Z,6.72
2023-04-25T20:29:15.219Z,6.46
2023-04-25T20:32:19.217Z,6.53
2023-04-25T20:35:22.912Z,6.36
2023-04-25T20:38:25.881Z,6.32
2023-04-25T20:41:28.526Z,6.30
2023-04-25T20:44:32.018Z,6.39
2023-04-25T20:47:36.056Z,6.39
2023-04-25T20:50:39.069Z,6.31
2023-04-25T20:53:41.734Z,6.15
2023-04-25T20:56:44.770Z,6.14
2023-04-25T20:59:48.974Z,6.16
2023-04-25T21:02:55.002Z,6.12
2023-04-25T21:05:57.695Z,6.04
2023-04-25T21:09:00.332Z,5.81
2023-04-25T21:12:03.483Z,5.94
2023-04-25T21:15:06.882Z,6.06
2023-04-25T21:18:11.088Z,6.14
2023-04-25T21:21:13.734Z,6.30
2023-04-25T21:24:16.370Z,6.35
2023-04-25T21:27:18.951Z,6.27
2023-04-25T21:30:23.785Z,5.91
2023-04-25T21:33:28.054Z,5.91
2023-04-25T21:36:30.760Z,6.10
2023-04-25T21:39:33.357Z,5.94
2023-04-25T21:42:36.212Z,5.68
2023-04-25T21:45:53.711Z,5.73
2023-04-25T21:49:02.813Z,5.86
2023-04-25T21:52:05.548Z,5.98
2023-04-25T21:55:09.266Z,6.01
2023-04-25T21:58:11.860Z,5.92
2023-04-25T22:01:15.776Z,6.07
2023-04-25T22:04:20.556Z,5.91
2023-04-25T22:07:23.305Z,5.87
2023-04-25T22:10:26.442Z,6.04
2023-04-25T22:13:29.068Z,5.81
2023-04-25T22:16:31.687Z,5.96
2023-04-25T22:19:36.821Z,5.94
2023-04-25T22:22:40.760Z,5.97
2023-04-25T22:25:43.354Z,5.77
2023-04-25T22:28:46.291Z,5.68
2023-04-25T22:31:48.941Z,5.54
2023-04-25T22:34:52.999Z,5.23
2023-04-25T22:37:55.648Z,5.34
2023-04-25T22:40:58.271Z,5.25
2023-04-25T22:44:00.865Z,5.21
2023-04-25T22:47:03.441Z,5.54
2023-04-25T22:50:13.092Z,5.62
2023-04-25T22:53:16.245Z,5.78
2023-04-25T22:56:18.836Z,5.69
2023-04-25T22:59:21.628Z,5.79
2023-04-25T23:02:24.932Z,5.72
2023-04-25T23:05:29.030Z,5.86
2023-04-25T23:08:31.727Z,5.78
2023-04-25T23:11:34.354Z,5.62
2023-04-25T23:14:36.930Z,5.54
2023-04-25T23:17:39.531Z,5.69
2023-04-25T23:20:43.583Z,5.53
2023-04-25T23:23:46.197Z,5.49
2023-04-25T23:26:48.779Z,5.35
2023-04-25T23:29:56.497Z,5.57
2023-04-25T23:32:59.174Z,5.41
2023-04-25T23:36:03.293Z,5.20
2023-04-25T23:39:05.936Z,5.43
2023-04-25T23:42:08.842Z,5.23
2023-04-25T23:45:12.448Z,5.15
2023-04-25T23:48:15.876Z,5.15
2023-04-25T23:51:19.976Z,5.20
2023-04-25T23:54:22.739Z,5.23
2023-04-25T23:57:25.458Z,5.09
